createdAt,value
2018-09-14T00:00:58.348Z,1016.08
2018-09-14T00:01:58.349Z,1016.09
2018-09-14T00:02:58.347Z,1016.12
2018-09-14T00:03:58.338Z,1016.08
2018-09-14T00:04:58.349Z,1016.08
2018-09-14T00:05:58.352Z,1016.11
2018-09-14T00:06:58.351Z,1016.10
2018-09-14T00:07:58.361Z,1016.06
2018-09-14T00:08:58.393Z,1016.08
2018-09-14T00:09:58.383Z,1016.07
2018-09-14T00:10:58.354Z,1016.04
2018-09-14T00:11:58.349Z,1016.03
2018-09-14T00:12:58.360Z,1016.03
2018-09-14T00:13:58.372Z,1016.02
2018-09-14T00:14:58.384Z,1016.02
2018-09-14T00:15:58.352Z,1016.03
2018-09-14T00:16:58.367Z,1016.02
2018-09-14T00:17:58.359Z,1016.05
2018-09-14T00:18:58.373Z,1016.02
2018-09-14T00:19:58.368Z,1015.96
2018-09-14T00:20:58.375Z,1015.95
2018-09-14T00:21:58.387Z,1015.93
2018-09-14T00:22:58.371Z,1015.95
2018-09-14T00:23:58.374Z,1015.91
2018-09-14T00:24:58.379Z,1015.91
2018-09-14T00:25:58.424Z,1015.90
2018-09-14T00:26:58.368Z,1015.91
2018-09-14T00:27:58.403Z,1015.89
2018-09-14T00:28:58.407Z,1015.89
2018-09-14T00:29:58.395Z,1015.88
2018-09-14T00:30:58.411Z,1015.87
2018-09-14T00:31:58.382Z,1015.89
2018-09-14T00:32:58.408Z,1015.89
2018-09-14T00:33:58.396Z,1015.87
2018-09-14T00:34:58.377Z,1015.90
2018-09-14T00:35:58.424Z,1015.86
2018-09-14T00:36:58.388Z,1015.87
2018-09-14T00:37:58.384Z,1015.86
2018-09-14T00:38:58.398Z,1015.86
2018-09-14T00:39:58.393Z,1015.86
2018-09-14T00:40:58.401Z,1015.84
2018-09-14T00:41:58.396Z,1015.88
2018-09-14T00:42:58.401Z,1015.85
2018-09-14T00:43:58.390Z,1015.84
2018-09-14T00:44:58.390Z,1015.87
2018-09-14T00:45:58.408Z,1015.84
2018-09-14T00:46:58.396Z,1015.83
2018-09-14T00:47:58.407Z,1015.80
2018-09-14T00:48:58.418Z,1015.81
2018-09-14T00:49:58.411Z,1015.79
2018-09-14T00:50:58.439Z,1015.78
2018-09-14T00:51:58.435Z,1015.80
2018-09-14T00:52:58.410Z,1015.82
2018-09-14T00:53:58.416Z,1015.84
2018-09-14T00:54:58.410Z,1015.80
2018-09-14T00:55:58.426Z,1015.80
2018-09-14T00:56:58.437Z,1015.80
2018-09-14T00:57:58.410Z,1015.78
2018-09-14T00:58:58.420Z,1015.82
2018-09-14T00:59:58.445Z,1015.81
2018-09-14T01:00:58.415Z,1015.80
2018-09-14T01:01:58.413Z,1015.81
2018-09-14T01:02:58.425Z,1015.80
2018-09-14T01:03:58.432Z,1015.74
2018-09-14T01:04:58.437Z,1015.77
2018-09-14T01:05:58.445Z,1015.79
2018-09-14T01:06:58.442Z,1015.79
2018-09-14T01:07:58.417Z,1015.77
2018-09-14T01:08:58.449Z,1015.78
2018-09-14T01:09:58.458Z,1015.77
2018-09-14T01:10:58.435Z,1015.77
2018-09-14T01:11:58.444Z,1015.77
2018-09-14T01:12:58.452Z,1015.79
2018-09-14T01:13:58.427Z,1015.78
2018-09-14T01:14:58.426Z,1015.80
2018-09-14T01:15:58.444Z,1015.78
2018-09-14T01:16:58.451Z,1015.79
2018-09-14T01:17:58.426Z,1015.76
2018-09-14T01:18:58.430Z,1015.76
2018-09-14T01:19:58.449Z,1015.73
2018-09-14T01:20:58.454Z,1015.73
2018-09-14T01:21:58.453Z,1015.73
2018-09-14T01:22:58.456Z,1015.71
2018-09-14T01:23:58.457Z,1015.68
2018-09-14T01:24:58.441Z,1015.69
2018-09-14T01:25:58.449Z,1015.72
2018-09-14T01:26:58.475Z,1015.71
2018-09-14T01:27:58.462Z,1015.69
2018-09-14T01:28:58.487Z,1015.70
2018-09-14T01:29:58.467Z,1015.68
2018-09-14T01:30:58.478Z,1015.70
2018-09-14T01:31:58.476Z,1015.70
2018-09-14T01:32:58.457Z,1015.69
2018-09-14T01:33:58.451Z,1015.66
2018-09-14T01:34:58.479Z,1015.65
2018-09-14T01:35:58.461Z,1015.65
2018-09-14T01:36:58.475Z,1015.67
2018-09-14T01:37:58.480Z,1015.67
2018-09-14T01:38:58.462Z,1015.65
2018-09-14T01:39:58.483Z,1015.65
2018-09-14T01:40:58.456Z,1015.62
2018-09-14T01:41:58.464Z,1015.64
2018-09-14T01:42:58.468Z,1015.67
2018-09-14T01:43:58.473Z,1015.63
2018-09-14T01:44:58.483Z,1015.66
2018-09-14T01:45:58.472Z,1015.63
2018-09-14T01:46:58.479Z,1015.63
2018-09-14T01:47:58.464Z,1015.63
2018-09-14T01:48:58.468Z,1015.64
2018-09-14T01:49:58.473Z,1015.67
2018-09-14T01:50:58.486Z,1015.65
2018-09-14T01:51:58.497Z,1015.65
2018-09-14T01:52:58.491Z,1015.66
2018-09-14T01:53:58.485Z,1015.65
2018-09-14T01:54:58.483Z,1015.70
2018-09-14T01:55:58.483Z,1015.67
2018-09-14T01:56:58.486Z,1015.65
2018-09-14T01:57:58.510Z,1015.66
2018-09-14T01:58:58.487Z,1015.66
2018-09-14T01:59:58.495Z,1015.64
2018-09-14T02:00:58.489Z,1015.65
2018-09-14T02:01:58.496Z,1015.63
2018-09-14T02:02:58.502Z,1015.61
2018-09-14T02:03:58.518Z,1015.62
2018-09-14T02:04:58.513Z,1015.60
2018-09-14T02:05:58.500Z,1015.62
2018-09-14T02:06:58.492Z,1015.63
2018-09-14T02:07:58.510Z,1015.63
2018-09-14T02:08:58.553Z,1015.61
2018-09-14T02:09:58.494Z,1015.56
2018-09-14T02:10:58.524Z,1015.56
2018-09-14T02:11:58.521Z,1015.59
2018-09-14T02:12:58.514Z,1015.54
2018-09-14T02:13:58.526Z,1015.58
2018-09-14T02:14:58.520Z,1015.53
2018-09-14T02:15:58.531Z,1015.57
2018-09-14T02:16:58.517Z,1015.54
2018-09-14T02:17:58.521Z,1015.54
2018-09-14T02:18:58.525Z,1015.52
2018-09-14T02:19:58.513Z,1015.52
2018-09-14T02:20:58.510Z,1015.52
2018-09-14T02:21:58.514Z,1015.49
2018-09-14T02:22:58.518Z,1015.50
2018-09-14T02:23:58.509Z,1015.51
2018-09-14T02:24:58.521Z,1015.48
2018-09-14T02:25:58.560Z,1015.45
2018-09-14T02:26:58.518Z,1015.44
2018-09-14T02:27:58.533Z,1015.44
2018-09-14T02:28:58.536Z,1015.44
2018-09-14T02:29:58.528Z,1015.44
2018-09-14T02:30:58.528Z,1015.48
2018-09-14T02:31:58.535Z,1015.43
2018-09-14T02:32:58.540Z,1015.40
2018-09-14T02:33:58.528Z,1015.40
2018-09-14T02:34:58.568Z,1015.41
2018-09-14T02:35:58.529Z,1015.45
2018-09-14T02:36:58.533Z,1015.39
2018-09-14T02:37:58.552Z,1015.42
2018-09-14T02:38:58.530Z,1015.38
2018-09-14T02:39:58.525Z,1015.39
2018-09-14T02:40:58.544Z,1015.41
2018-09-14T02:41:58.535Z,1015.36
2018-09-14T02:42:58.530Z,1015.37
2018-09-14T02:43:58.535Z,1015.33
2018-09-14T02:44:58.540Z,1015.36
2018-09-14T02:45:58.540Z,1015.33
2018-09-14T02:46:58.550Z,1015.34
2018-09-14T02:47:58.539Z,1015.34
2018-09-14T02:48:58.546Z,1015.37
2018-09-14T02:49:58.544Z,1015.35
2018-09-14T02:50:58.548Z,1015.34
2018-09-14T02:51:58.562Z,1015.33
2018-09-14T02:52:58.559Z,1015.35
2018-09-14T02:53:58.553Z,1015.34
2018-09-14T02:54:58.556Z,1015.33
2018-09-14T02:55:58.548Z,1015.34
2018-09-14T02:56:58.544Z,1015.32
2018-09-14T02:57:58.542Z,1015.35
2018-09-14T02:58:58.544Z,1015.34
2018-09-14T02:59:58.600Z,1015.34
2018-09-14T03:00:58.554Z,1015.37
2018-09-14T03:01:58.551Z,1015.35
2018-09-14T03:02:58.563Z,1015.31
2018-09-14T03:03:58.554Z,1015.35
2018-09-14T03:04:58.554Z,1015.35
2018-09-14T03:05:58.549Z,1015.37
2018-09-14T03:06:58.560Z,1015.35
2018-09-14T03:07:58.574Z,1015.32
2018-09-14T03:08:58.586Z,1015.31
2018-09-14T03:09:58.566Z,1015.27
2018-09-14T03:10:58.553Z,1015.28
2018-09-14T03:11:58.572Z,1015.29
2018-09-14T03:12:58.555Z,1015.29
2018-09-14T03:13:58.559Z,1015.31
2018-09-14T03:14:58.584Z,1015.30
2018-09-14T03:15:58.564Z,1015.25
2018-09-14T03:16:58.599Z,1015.26
2018-09-14T03:17:58.565Z,1015.26
2018-09-14T03:18:58.595Z,1015.20
2018-09-14T03:19:58.574Z,1015.24
2018-09-14T03:20:58.588Z,1015.23
2018-09-14T03:21:58.573Z,1015.25
2018-09-14T03:22:58.575Z,1015.24
2018-09-14T03:23:58.590Z,1015.27
2018-09-14T03:24:58.586Z,1015.25
2018-09-14T03:25:58.611Z,1015.24
2018-09-14T03:26:58.582Z,1015.27
2018-09-14T03:27:58.575Z,1015.27
2018-09-14T03:28:58.582Z,1015.26
2018-09-14T03:29:58.576Z,1015.28
2018-09-14T03:30:58.605Z,1015.26
2018-09-14T03:31:58.599Z,1015.26
2018-09-14T03:32:58.594Z,1015.28
2018-09-14T03:33:58.582Z,1015.30
2018-09-14T03:34:58.589Z,1015.30
2018-09-14T03:35:58.599Z,1015.28
2018-09-14T03:36:58.585Z,1015.29
2018-09-14T03:37:58.612Z,1015.28
2018-09-14T03:38:58.579Z,1015.28
2018-09-14T03:39:58.588Z,1015.29
2018-09-14T03:40:58.604Z,1015.26
2018-09-14T03:41:58.580Z,1015.31
2018-09-14T03:42:58.588Z,1015.29
2018-09-14T03:43:58.585Z,1015.28
2018-09-14T03:44:58.617Z,1015.26
2018-09-14T03:45:58.589Z,1015.24
2018-09-14T03:46:58.583Z,1015.26
2018-09-14T03:47:58.615Z,1015.29
2018-09-14T03:48:58.683Z,1015.26
2018-09-14T03:49:58.604Z,1015.30
2018-09-14T03:50:58.611Z,1015.31
2018-09-14T03:51:58.601Z,1015.34
2018-09-14T03:52:58.593Z,1015.34
2018-09-14T03:53:58.639Z,1015.34
2018-09-14T03:54:58.602Z,1015.32
2018-09-14T03:55:58.613Z,1015.33
2018-09-14T03:56:58.614Z,1015.32
2018-09-14T03:57:58.605Z,1015.32
2018-09-14T03:58:58.605Z,1015.33
2018-09-14T03:59:58.591Z,1015.28
2018-09-14T04:00:58.601Z,1015.30
2018-09-14T04:01:58.599Z,1015.29
2018-09-14T04:02:58.631Z,1015.30
2018-09-14T04:03:58.633Z,1015.34
2018-09-14T04:04:58.608Z,1015.31
2018-09-14T04:05:58.611Z,1015.30
2018-09-14T04:06:58.633Z,1015.30
2018-09-14T04:07:58.625Z,1015.31
2018-09-14T04:08:58.628Z,1015.27
2018-09-14T04:09:58.625Z,1015.30
2018-09-14T04:10:58.613Z,1015.29
2018-09-14T04:11:58.610Z,1015.32
2018-09-14T04:12:58.630Z,1015.34
2018-09-14T04:13:58.637Z,1015.34
2018-09-14T04:14:58.654Z,1015.34
2018-09-14T04:15:58.633Z,1015.35
2018-09-14T04:17:00.101Z,1015.33
2018-09-14T04:18:00.101Z,1015.36
2018-09-14T04:18:58.631Z,1015.30
2018-09-14T04:19:58.624Z,1015.28
2018-09-14T04:20:58.664Z,1015.31
2018-09-14T04:21:58.641Z,1015.31
2018-09-14T04:22:58.620Z,1015.31
2018-09-14T04:23:58.644Z,1015.30
2018-09-14T04:24:58.625Z,1015.28
2018-09-14T04:25:58.625Z,1015.32
2018-09-14T04:26:58.634Z,1015.33
2018-09-14T04:27:58.628Z,1015.29
2018-09-14T04:28:58.630Z,1015.30
2018-09-14T04:29:58.642Z,1015.31
2018-09-14T04:30:58.663Z,1015.30
2018-09-14T04:31:58.653Z,1015.28
2018-09-14T04:32:58.647Z,1015.33
2018-09-14T04:33:58.623Z,1015.30
2018-09-14T04:34:58.634Z,1015.28
2018-09-14T04:35:58.632Z,1015.31
2018-09-14T04:36:58.659Z,1015.31
2018-09-14T04:37:58.685Z,1015.30
2018-09-14T04:38:58.642Z,1015.31
2018-09-14T04:39:58.641Z,1015.28
2018-09-14T04:40:58.633Z,1015.25
2018-09-14T04:41:58.643Z,1015.30
2018-09-14T04:42:58.638Z,1015.29
2018-09-14T04:43:58.684Z,1015.27
2018-09-14T04:44:58.650Z,1015.25
2018-09-14T04:45:58.639Z,1015.26
2018-09-14T04:46:58.681Z,1015.23
2018-09-14T04:47:58.643Z,1015.28
2018-09-14T04:48:58.643Z,1015.31
2018-09-14T04:49:58.643Z,1015.33
2018-09-14T04:50:58.648Z,1015.35
2018-09-14T04:51:58.652Z,1015.34
2018-09-14T04:52:58.642Z,1015.31
2018-09-14T04:53:58.678Z,1015.34
2018-09-14T04:54:58.696Z,1015.36
2018-09-14T04:55:58.672Z,1015.36
2018-09-14T04:56:58.660Z,1015.35
2018-09-14T04:57:58.647Z,1015.40
2018-09-14T04:58:58.644Z,1015.37
2018-09-14T04:59:58.663Z,1015.37
2018-09-14T05:00:58.644Z,1015.35
2018-09-14T05:01:58.656Z,1015.36
2018-09-14T05:02:58.686Z,1015.32
2018-09-14T05:03:58.647Z,1015.34
2018-09-14T05:04:58.653Z,1015.34
2018-09-14T05:05:58.648Z,1015.32
2018-09-14T05:06:58.676Z,1015.34
2018-09-14T05:07:58.683Z,1015.29
2018-09-14T05:08:58.664Z,1015.28
2018-09-14T05:09:58.678Z,1015.31
2018-09-14T05:10:58.666Z,1015.29
2018-09-14T05:11:58.651Z,1015.33
2018-09-14T05:12:58.683Z,1015.31
2018-09-14T05:13:58.727Z,1015.35
2018-09-14T05:14:58.667Z,1015.35
2018-09-14T05:15:58.677Z,1015.36
2018-09-14T05:16:58.677Z,1015.35
2018-09-14T05:17:58.675Z,1015.39
2018-09-14T05:18:58.679Z,1015.35
2018-09-14T05:19:58.696Z,1015.35
2018-09-14T05:20:58.655Z,1015.37
2018-09-14T05:21:58.697Z,1015.37
2018-09-14T05:22:58.675Z,1015.33
2018-09-14T05:23:58.763Z,1015.36
2018-09-14T05:24:58.727Z,1015.36
2018-09-14T05:25:58.680Z,1015.34
2018-09-14T05:26:58.676Z,1015.41
2018-09-14T05:27:58.663Z,1015.34
2018-09-14T05:28:58.692Z,1015.36
2018-09-14T05:29:58.763Z,1015.37
2018-09-14T05:30:58.699Z,1015.40
2018-09-14T05:31:58.717Z,1015.41
2018-09-14T05:32:58.683Z,1015.40
2018-09-14T05:33:58.684Z,1015.43
2018-09-14T05:34:58.703Z,1015.41
2018-09-14T05:35:58.814Z,1015.41
2018-09-14T05:36:58.711Z,1015.39
2018-09-14T05:37:58.716Z,1015.44
2018-09-14T05:38:58.683Z,1015.48
2018-09-14T05:39:58.684Z,1015.49
2018-09-14T05:40:58.716Z,1015.51
2018-09-14T05:41:58.679Z,1015.50
2018-09-14T05:42:58.692Z,1015.51
2018-09-14T05:43:58.700Z,1015.54
2018-09-14T05:44:58.697Z,1015.56
2018-09-14T05:45:58.708Z,1015.53
2018-09-14T05:46:58.699Z,1015.53
2018-09-14T05:47:58.715Z,1015.56
2018-09-14T05:48:58.724Z,1015.58
2018-09-14T05:49:58.696Z,1015.57
2018-09-14T05:50:58.699Z,1015.57
2018-09-14T05:51:58.712Z,1015.60
2018-09-14T05:52:58.690Z,1015.55
2018-09-14T05:53:58.693Z,1015.60
2018-09-14T05:54:58.684Z,1015.60
2018-09-14T05:55:58.695Z,1015.62
2018-09-14T05:56:58.753Z,1015.63
2018-09-14T05:57:58.685Z,1015.64
2018-09-14T05:58:58.712Z,1015.69
2018-09-14T05:59:58.788Z,1015.73
2018-09-14T06:00:58.723Z,1015.76
2018-09-14T06:01:58.711Z,1015.75
2018-09-14T06:02:58.744Z,1015.76
2018-09-14T06:03:58.707Z,1015.77
2018-09-14T06:04:58.731Z,1015.80
2018-09-14T06:05:58.704Z,1015.80
2018-09-14T06:06:58.731Z,1015.77
2018-09-14T06:07:58.702Z,1015.78
2018-09-14T06:08:58.705Z,1015.84
2018-09-14T06:09:58.740Z,1015.82
2018-09-14T06:10:58.775Z,1015.84
2018-09-14T06:11:58.705Z,1015.84
2018-09-14T06:12:58.766Z,1015.92
2018-09-14T06:13:58.765Z,1015.92
2018-09-14T06:14:58.731Z,1015.89
2018-09-14T06:15:58.709Z,1015.90
2018-09-14T06:16:58.733Z,1015.92
2018-09-14T06:17:58.727Z,1015.90
2018-09-14T06:18:58.739Z,1015.94
2018-09-14T06:19:58.780Z,1015.96
2018-09-14T06:20:58.744Z,1015.94
2018-09-14T06:21:58.729Z,1015.99
2018-09-14T06:22:58.790Z,1016.00
2018-09-14T06:23:58.859Z,1015.98
2018-09-14T06:24:58.746Z,1015.97
2018-09-14T06:25:58.776Z,1015.98
2018-09-14T06:26:58.745Z,1015.95
2018-09-14T06:27:58.735Z,1015.96
2018-09-14T06:28:58.754Z,1016.00
2018-09-14T06:29:58.739Z,1016.00
2018-09-14T06:30:58.765Z,1016.04
2018-09-14T06:31:58.750Z,1016.08
2018-09-14T06:32:58.760Z,1016.04
2018-09-14T06:33:58.762Z,1016.11
2018-09-14T06:34:58.762Z,1016.10
2018-09-14T06:35:58.756Z,1016.11
2018-09-14T06:36:58.760Z,1016.11
2018-09-14T06:37:58.786Z,1016.11
2018-09-14T06:38:58.791Z,1016.13
2018-09-14T06:39:58.776Z,1016.13
2018-09-14T06:40:58.773Z,1016.09
2018-09-14T06:41:58.820Z,1016.08
2018-09-14T06:42:58.785Z,1016.09
2018-09-14T06:43:58.799Z,1016.05
2018-09-14T06:44:58.821Z,1016.09
2018-09-14T06:45:58.780Z,1016.09
2018-09-14T06:46:58.768Z,1016.13
2018-09-14T06:47:58.772Z,1016.09
2018-09-14T06:48:58.789Z,1016.15
2018-09-14T06:49:58.830Z,1016.12
2018-09-14T06:50:58.787Z,1016.11
2018-09-14T06:51:58.891Z,1016.16
2018-09-14T06:52:58.820Z,1016.16
2018-09-14T06:53:58.796Z,1016.15
2018-09-14T06:54:58.804Z,1016.12
2018-09-14T06:55:58.802Z,1016.18
2018-09-14T06:56:58.820Z,1016.21
2018-09-14T06:57:58.879Z,1016.20
2018-09-14T06:58:58.848Z,1016.22
2018-09-14T06:59:58.910Z,1016.22
2018-09-14T07:00:58.826Z,1016.19
2018-09-14T07:01:58.935Z,1016.21
2018-09-14T07:02:58.829Z,1016.24
2018-09-14T07:03:58.823Z,1016.20
2018-09-14T07:04:58.839Z,1016.18
2018-09-14T07:05:58.823Z,1016.17
2018-09-14T07:06:58.867Z,1016.18
2018-09-14T07:07:58.865Z,1016.16
2018-09-14T07:08:58.850Z,1016.22
2018-09-14T07:09:58.853Z,1016.18
2018-09-14T07:10:58.836Z,1016.18
2018-09-14T07:11:58.922Z,1016.17
2018-09-14T07:12:58.911Z,1016.24
2018-09-14T07:13:58.889Z,1016.26
2018-09-14T07:14:58.897Z,1016.27
2018-09-14T07:15:58.904Z,1016.29
2018-09-14T07:16:58.866Z,1016.30
2018-09-14T07:17:58.900Z,1016.32
2018-09-14T07:18:58.877Z,1016.29
2018-09-14T07:19:58.926Z,1016.35
2018-09-14T07:20:58.906Z,1016.31
2018-09-14T07:21:59.006Z,1016.31
2018-09-14T07:22:58.921Z,1016.35
2018-09-14T07:23:58.905Z,1016.28
2018-09-14T07:24:58.936Z,1016.34
2018-09-14T07:25:58.944Z,1016.40
2018-09-14T07:26:58.911Z,1016.35
2018-09-14T07:27:58.920Z,1016.36
2018-09-14T07:28:58.977Z,1016.40
2018-09-14T07:29:58.940Z,1016.39
2018-09-14T07:30:58.953Z,1016.42
2018-09-14T07:31:58.925Z,1016.47
2018-09-14T07:32:58.982Z,1016.46
2018-09-14T07:33:58.953Z,1016.50
2018-09-14T07:34:59.017Z,1016.46
2018-09-14T07:35:58.959Z,1016.51
2018-09-14T07:36:58.960Z,1016.51
2018-09-14T07:37:59.027Z,1016.52
2018-09-14T07:38:58.977Z,1016.54
2018-09-14T07:39:58.983Z,1016.58
2018-09-14T07:40:58.990Z,1016.58
2018-09-14T07:41:58.988Z,1016.60
2018-09-14T07:42:59.009Z,1016.55
2018-09-14T07:43:58.998Z,1016.57
2018-09-14T07:44:59.011Z,1016.60
2018-09-14T07:45:59.029Z,1016.58
2018-09-14T07:46:59.045Z,1016.63
2018-09-14T07:47:59.022Z,1016.69
2018-09-14T07:48:59.071Z,1016.68
2018-09-14T07:49:59.043Z,1016.67
2018-09-14T07:50:59.071Z,1016.67
2018-09-14T07:51:59.048Z,1016.72
2018-09-14T07:52:59.051Z,1016.69
2018-09-14T07:53:59.097Z,1016.70
2018-09-14T07:54:59.112Z,1016.72
2018-09-14T07:55:59.118Z,1016.72
2018-09-14T07:56:59.141Z,1016.73
2018-09-14T07:57:59.124Z,1016.75
2018-09-14T07:58:59.142Z,1016.79
2018-09-14T08:00:01.789Z,1016.86
2018-09-14T08:00:59.194Z,1016.86
2018-09-14T08:01:59.123Z,1016.92
2018-09-14T08:02:59.173Z,1016.93
2018-09-14T08:03:59.176Z,1016.95
2018-09-14T08:04:59.182Z,1016.99
2018-09-14T08:05:59.193Z,1017.00
2018-09-14T08:06:59.155Z,1017.05
2018-09-14T08:07:59.193Z,1017.03
2018-09-14T08:08:59.179Z,1017.05
2018-09-14T08:09:59.235Z,1017.05
2018-09-14T08:10:59.174Z,1017.09
2018-09-14T08:11:59.229Z,1017.14
2018-09-14T08:12:59.218Z,1017.13
2018-09-14T08:13:59.210Z,1017.17
2018-09-14T08:14:59.264Z,1017.17
2018-09-14T08:15:59.289Z,1017.17
2018-09-14T08:16:59.300Z,1017.22
2018-09-14T08:17:59.258Z,1017.22
2018-09-14T08:18:59.274Z,1017.26
2018-09-14T08:19:59.278Z,1017.31
2018-09-14T08:20:59.321Z,1017.33
2018-09-14T08:21:59.340Z,1017.34
2018-09-14T08:22:59.359Z,1017.35
2018-09-14T08:23:59.323Z,1017.36
2018-09-14T08:24:59.363Z,1017.40
2018-09-14T08:25:59.396Z,1017.39
2018-09-14T08:26:59.339Z,1017.37
2018-09-14T08:27:59.341Z,1017.42
2018-09-14T08:28:59.344Z,1017.43
2018-09-14T08:29:59.375Z,1017.43
2018-09-14T08:30:59.351Z,1017.47
2018-09-14T08:31:59.420Z,1017.54
2018-09-14T08:32:59.429Z,1017.50
2018-09-14T08:33:59.424Z,1017.47
2018-09-14T08:34:59.392Z,1017.51
2018-09-14T08:35:59.397Z,1017.51
2018-09-14T08:36:59.395Z,1017.50
2018-09-14T08:37:59.426Z,1017.53
2018-09-14T08:38:59.436Z,1017.57
2018-09-14T08:40:00.340Z,1017.59
2018-09-14T08:40:59.468Z,1017.57
2018-09-14T08:41:59.485Z,1017.53
2018-09-14T08:42:59.519Z,1017.53
2018-09-14T08:43:59.517Z,1017.56
2018-09-14T08:44:59.544Z,1017.56
2018-09-14T08:45:59.536Z,1017.54
2018-09-14T08:46:59.565Z,1017.51
2018-09-14T08:47:59.540Z,1017.51
2018-09-14T08:48:59.595Z,1017.56
2018-09-14T08:49:59.610Z,1017.59
2018-09-14T08:50:59.590Z,1017.53
2018-09-14T08:51:59.595Z,1017.52
2018-09-14T08:52:59.598Z,1017.49
2018-09-14T08:53:59.665Z,1017.44
2018-09-14T08:54:59.672Z,1017.44
2018-09-14T08:56:00.262Z,1017.38
2018-09-14T08:57:00.236Z,1017.39
2018-09-14T08:57:59.743Z,1017.38
2018-09-14T08:58:59.775Z,1017.39
2018-09-14T09:00:00.417Z,1017.36
2018-09-14T09:00:59.802Z,1017.35
2018-09-14T09:02:00.542Z,1017.32
2018-09-14T09:02:59.772Z,1017.35
2018-09-14T09:03:59.896Z,1017.34
2018-09-14T09:04:59.803Z,1017.31
2018-09-14T09:05:59.754Z,1017.29
2018-09-14T09:06:59.854Z,1017.31
2018-09-14T09:07:59.810Z,1017.32
2018-09-14T09:08:59.779Z,1017.27
2018-09-14T09:09:59.880Z,1017.27
2018-09-14T09:10:59.812Z,1017.31
2018-09-14T09:11:59.829Z,1017.32
2018-09-14T09:12:59.867Z,1017.28
2018-09-14T09:13:59.873Z,1017.27
2018-09-14T09:14:59.922Z,1017.27
2018-09-14T09:16:06.853Z,1017.23
2018-09-14T09:16:59.913Z,1017.24
2018-09-14T09:17:59.962Z,1017.28
2018-09-14T09:18:59.993Z,1017.26
2018-09-14T09:20:00.349Z,1017.28
2018-09-14T09:20:59.999Z,1017.23
2018-09-14T09:21:59.959Z,1017.20
2018-09-14T09:23:00.020Z,1017.20
2018-09-14T09:24:01.454Z,1017.20
2018-09-14T09:25:10.205Z,1017.16
2018-09-14T09:26:07.137Z,1017.22
2018-09-14T09:27:00.642Z,1017.22
2018-09-14T09:28:21.105Z,1017.24
2018-09-14T09:29:00.138Z,1017.24
2018-09-14T09:30:00.075Z,1017.24
2018-09-14T09:31:00.080Z,1017.26
2018-09-14T09:32:00.028Z,1017.26
2018-09-14T09:33:00.084Z,1017.25
2018-09-14T09:34:00.088Z,1017.31
2018-09-14T09:35:00.129Z,1017.29
2018-09-14T09:36:00.093Z,1017.31
2018-09-14T09:37:00.877Z,1017.31
2018-09-14T09:38:00.127Z,1017.30
2018-09-14T09:39:00.207Z,1017.30
2018-09-14T09:40:00.136Z,1017.29
2018-09-14T09:41:00.347Z,1017.30
2018-09-14T09:42:00.189Z,1017.30
2018-09-14T09:43:01.826Z,1017.34
2018-09-14T09:44:00.248Z,1017.72
2018-09-14T09:45:00.215Z,1018.47
2018-09-14T09:46:00.260Z,1019.20
2018-09-14T09:47:00.294Z,1019.41
2018-09-14T09:48:00.315Z,1020.04
2018-09-14T09:49:00.274Z,1020.42
2018-09-14T09:50:00.301Z,1020.36
2018-09-14T09:51:00.486Z,1020.40
2018-09-14T09:52:00.373Z,1020.31
2018-09-14T09:53:01.269Z,1021.18
2018-09-14T09:54:00.378Z,1021.87
2018-09-14T09:55:00.380Z,1021.97
2018-09-14T09:56:00.365Z,1021.96
2018-09-14T09:57:00.437Z,1022.74
2018-09-14T09:58:00.445Z,1022.66
2018-09-14T09:59:00.471Z,1022.26
2018-09-14T10:00:00.473Z,1021.22
2018-09-14T10:01:01.538Z,1021.63
2018-09-14T10:02:00.436Z,1021.95
2018-09-14T10:03:00.469Z,1021.19
2018-09-14T10:04:00.786Z,1020.10
2018-09-14T10:05:00.526Z,1019.12
2018-09-14T10:06:00.519Z,1018.62
2018-09-14T10:07:00.547Z,1017.90
2018-09-14T10:08:01.844Z,1017.58
2018-09-14T10:09:01.303Z,1017.41
2018-09-14T10:10:00.675Z,1017.35
2018-09-14T10:11:01.017Z,1017.28
2018-09-14T10:12:00.592Z,1017.24
2018-09-14T10:14:01.540Z,1017.16
2018-09-14T10:15:00.637Z,1017.08
2018-09-14T10:16:00.669Z,1017.07
2018-09-14T10:17:00.634Z,1017.04
2018-09-14T10:18:00.733Z,1017.03
2018-09-14T10:19:00.730Z,1017.06
2018-09-14T10:20:00.686Z,1017.09
2018-09-14T10:21:00.778Z,1017.13
2018-09-14T10:22:00.812Z,1017.13
2018-09-14T10:23:00.794Z,1017.11
2018-09-14T10:24:00.851Z,1017.19
2018-09-14T10:25:00.752Z,1017.17
2018-09-14T10:26:00.897Z,1017.13
2018-09-14T10:27:00.808Z,1017.04
2018-09-14T10:28:00.835Z,1017.03
2018-09-14T10:29:00.930Z,1017.03
2018-09-14T10:30:01.008Z,1016.99
2018-09-14T10:31:00.894Z,1016.82
2018-09-14T10:32:00.928Z,1016.48
2018-09-14T10:33:00.872Z,1016.89
2018-09-14T10:34:00.996Z,1016.90
2018-09-14T10:35:01.030Z,1016.86
2018-09-14T10:36:00.958Z,1016.90
2018-09-14T10:37:01.180Z,1016.91
2018-09-14T10:38:01.038Z,1016.79
2018-09-14T10:39:01.041Z,1016.81
2018-09-14T10:40:01.022Z,1016.88
2018-09-14T10:41:01.142Z,1016.41
2018-09-14T10:42:01.024Z,1016.32
2018-09-14T10:43:01.063Z,1016.31
2018-09-14T10:44:01.070Z,1016.27
2018-09-14T10:45:01.084Z,1016.51
2018-09-14T10:46:01.087Z,1016.74
2018-09-14T10:47:01.094Z,1016.72
2018-09-14T10:48:01.196Z,1016.70
2018-09-14T10:49:01.241Z,1016.35
2018-09-14T10:50:01.184Z,1016.30
2018-09-14T10:51:01.153Z,1016.25
2018-09-14T10:52:01.207Z,1016.59
2018-09-14T10:53:02.233Z,1016.68
2018-09-14T10:55:01.199Z,1016.43
2018-09-14T10:56:01.247Z,1016.30
2018-09-14T10:57:01.255Z,1016.30
2018-09-14T10:58:01.224Z,1016.14
2018-09-14T10:59:01.485Z,1016.17
2018-09-14T11:01:01.314Z,1016.47
2018-09-14T11:02:01.462Z,1016.31
2018-09-14T11:03:01.297Z,1016.26
2018-09-14T11:04:01.300Z,1016.16
2018-09-14T11:05:01.367Z,1016.15
2018-09-14T11:07:01.512Z,1016.30
2018-09-14T11:08:01.346Z,1016.35
2018-09-14T11:09:01.377Z,1016.34
2018-09-14T11:10:01.480Z,1016.38
2018-09-14T11:11:01.626Z,1016.38
2018-09-14T11:12:01.507Z,1016.33
2018-09-14T11:13:01.897Z,1016.31
2018-09-14T11:14:05.037Z,1016.30
2018-09-14T11:15:01.481Z,1016.28
2018-09-14T11:16:01.443Z,1016.22
2018-09-14T11:17:01.571Z,1016.09
2018-09-14T11:18:01.499Z,1015.99
2018-09-14T11:19:01.567Z,1015.93
2018-09-14T11:20:01.543Z,1015.85
2018-09-14T11:21:01.800Z,1015.86
2018-09-14T11:22:01.518Z,1015.86
2018-09-14T11:23:02.437Z,1015.82
2018-09-14T11:24:01.544Z,1015.81
2018-09-14T11:25:01.673Z,1015.79
2018-09-14T11:27:01.620Z,1015.85
2018-09-14T11:28:01.721Z,1015.81
2018-09-14T11:29:01.647Z,1015.80
2018-09-14T11:30:02.936Z,1015.78
2018-09-14T11:31:01.985Z,1015.78
2018-09-14T11:32:01.683Z,1015.80
2018-09-14T11:33:01.771Z,1015.77
2018-09-14T11:34:01.698Z,1015.70
2018-09-14T11:35:01.760Z,1015.64
2018-09-14T11:36:01.730Z,1015.64
2018-09-14T11:37:01.698Z,1015.58
2018-09-14T11:38:01.745Z,1015.54
2018-09-14T11:39:01.927Z,1015.56
2018-09-14T11:40:01.910Z,1015.55
2018-09-14T11:41:01.716Z,1015.50
2018-09-14T11:42:01.701Z,1015.50
2018-09-14T11:43:01.782Z,1015.59
2018-09-14T11:44:01.720Z,1015.58
2018-09-14T11:45:01.871Z,1015.61
2018-09-14T11:46:05.414Z,1015.60
2018-09-14T11:47:08.359Z,1015.54
2018-09-14T11:48:07.876Z,1015.50
2018-09-14T11:49:04.369Z,1015.47
2018-09-14T11:50:05.351Z,1015.46
2018-09-14T11:51:03.372Z,1015.46
2018-09-14T11:52:04.861Z,1015.44
2018-09-14T11:53:04.391Z,1015.41
2018-09-14T11:54:07.974Z,1015.50
2018-09-14T11:55:02.993Z,1015.49
2018-09-14T11:56:20.380Z,1015.46
2018-09-14T11:57:04.387Z,1015.43
2018-09-14T11:58:07.359Z,1015.46
2018-09-14T11:59:03.870Z,1015.37
2018-09-14T12:01:03.903Z,1015.31
2018-09-14T12:02:05.385Z,1015.33
2018-09-14T12:03:03.504Z,1015.35
2018-09-14T12:04:05.907Z,1015.34
2018-09-14T12:05:03.391Z,1015.31
2018-09-14T12:06:02.894Z,1015.27
2018-09-14T12:07:23.901Z,1015.17
2018-09-14T12:08:07.396Z,1015.15
2018-09-14T12:09:03.790Z,1015.12
2018-09-14T12:10:03.028Z,1015.09
2018-09-14T12:11:03.399Z,1015.11
2018-09-14T12:12:03.393Z,1015.13